sensor_id;sensor_type;location;lat;lon;timestamp;P1;durP1;ratioP1;P2;durP2;ratioP2
20772;SDS011;10546;50.674;4.616;2022-09-21T06:49:34;21.35;;;11.13;;
20772;SDS011;10546;50.674;4.616;2022-09-21T06:51:59;19.95;;;11.05;;
20772;SDS011;10546;50.674;4.616;2022-09-21T06:54:25;23.42;;;13.48;;
20772;SDS011;10546;50.674;4.616;2022-09-21T06:56:51;16.35;;;9.50;;
20772;SDS011;10546;50.674;4.616;2022-09-21T06:59:17;25.88;;;9.32;;
20772;SDS011;10546;50.674;4.616;2022-09-21T07:01:42;19.83;;;9.20;;
20772;SDS011;10546;50.674;4.616;2022-09-21T07:04:08;20.48;;;9.32;;
20772;SDS011;10546;50.674;4.616;2022-09-21T07:06:34;21.85;;;9.52;;
20772;SDS011;10546;50.674;4.616;2022-09-21T07:09:00;25.17;;;9.73;;
20772;SDS011;10546;50.674;4.616;2022-09-21T07:11:26;18.40;;;9.57;;
20772;SDS011;10546;50.674;4.616;2022-09-21T07:13:52;25.15;;;10.00;;
20772;SDS011;10546;50.674;4.616;2022-09-21T07:16:18;26.80;;;11.13;;
20772;SDS011;10546;50.674;4.616;2022-09-21T07:18:45;25.38;;;11.15;;
20772;SDS011;10546;50.674;4.616;2022-09-21T07:21:12;32.78;;;13.95;;
20772;SDS011;10546;50.674;4.616;2022-09-21T07:23:38;27.73;;;13.05;;
20772;SDS011;10546;50.674;4.616;2022-09-21T07:26:05;30.85;;;15.68;;
20772;SDS011;10546;50.674;4.616;2022-09-21T07:28:36;25.70;;;11.35;;
20772;SDS011;10546;50.674;4.616;2022-09-21T07:31:06;22.70;;;11.88;;
20772;SDS011;10546;50.674;4.616;2022-09-21T07:33:33;25.52;;;12.35;;
20772;SDS011;10546;50.674;4.616;2022-09-21T07:36:00;23.30;;;11.70;;
20772;SDS011;10546;50.674;4.616;2022-09-21T07:38:27;22.73;;;11.65;;
20772;SDS011;10546;50.674;4.616;2022-09-21T07:40:53;29.02;;;11.55;;
20772;SDS011;10546;50.674;4.616;2022-09-21T07:43:19;19.65;;;10.38;;
20772;SDS011;10546;50.674;4.616;2022-09-21T07:45:51;23.73;;;11.00;;
20772;SDS011;10546;50.674;4.616;2022-09-21T07:48:20;24.05;;;10.52;;
20772;SDS011;10546;50.674;4.616;2022-09-21T07:50:46;19.23;;;10.80;;
20772;SDS011;10546;50.674;4.616;2022-09-21T07:53:13;23.35;;;10.90;;
20772;SDS011;10546;50.674;4.616;2022-09-21T07:55:41;24.65;;;10.95;;
20772;SDS011;10546;50.674;4.616;2022-09-21T07:58:07;28.85;;;10.77;;
20772;SDS011;10546;50.674;4.616;2022-09-21T08:00:51;19.98;;;10.82;;
20772;SDS011;10546;50.674;4.616;2022-09-21T08:03:17;24.30;;;10.75;;
20772;SDS011;10546;50.674;4.616;2022-09-21T08:05:42;22.58;;;10.60;;
20772;SDS011;10546;50.674;4.616;2022-09-21T08:08:08;21.63;;;10.00;;
20772;SDS011;10546;50.674;4.616;2022-09-21T08:10:33;25.65;;;9.30;;
20772;SDS011;10546;50.674;4.616;2022-09-21T08:13:00;18.65;;;9.38;;
20772;SDS011;10546;50.674;4.616;2022-09-21T08:15:25;14.88;;;6.72;;
20772;SDS011;10546;50.674;4.616;2022-09-21T08:17:52;20.58;;;9.10;;
20772;SDS011;10546;50.674;4.616;2022-09-21T08:20:18;34.25;;;11.15;;
20772;SDS011;10546;50.674;4.616;2022-09-21T08:22:46;28.02;;;8.98;;
20772;SDS011;10546;50.674;4.616;2022-09-21T08:25:11;18.05;;;8.90;;
20772;SDS011;10546;50.674;4.616;2022-09-21T08:27:37;17.65;;;8.52;;
20772;SDS011;10546;50.674;4.616;2022-09-21T08:30:04;17.40;;;7.82;;
20772;SDS011;10546;50.674;4.616;2022-09-21T08:32:31;16.83;;;6.82;;
20772;SDS011;10546;50.674;4.616;2022-09-21T08:34:57;19.13;;;7.55;;
20772;SDS011;10546;50.674;4.616;2022-09-21T08:37:22;11.95;;;6.72;;
20772;SDS011;10546;50.674;4.616;2022-09-21T08:39:48;11.95;;;6.20;;
20772;SDS011;10546;50.674;4.616;2022-09-21T08:45:12;9.65;;;4.25;;
20772;SDS011;10546;50.674;4.616;2022-09-21T08:47:45;13.55;;;4.72;;
20772;SDS011;10546;50.674;4.616;2022-09-21T08:50:27;10.02;;;5.28;;
20772;SDS011;10546;50.674;4.616;2022-09-21T08:53:13;12.57;;;5.80;;
20772;SDS011;10546;50.674;4.616;2022-09-21T08:55:42;15.15;;;6.38;;
20772;SDS011;10546;50.674;4.616;2022-09-21T08:58:22;10.75;;;4.90;;
20772;SDS011;10546;50.674;4.616;2022-09-21T09:00:52;9.20;;;5.85;;
20772;SDS011;10546;50.674;4.616;2022-09-21T09:03:52;16.65;;;4.43;;
20772;SDS011;10546;50.674;4.616;2022-09-21T09:06:47;8.10;;;3.47;;
20772;SDS011;10546;50.674;4.616;2022-09-21T09:18:21;9.35;;;4.88;;
20772;SDS011;10546;50.674;4.616;2022-09-21T09:20:59;9.52;;;5.45;;
20772;SDS011;10546;50.674;4.616;2022-09-21T09:23:36;8.88;;;6.20;;
20772;SDS011;10546;50.674;4.616;2022-09-21T09:26:18;16.48;;;6.40;;
20772;SDS011;10546;50.674;4.616;2022-09-21T09:29:10;11.40;;;5.88;;
20772;SDS011;10546;50.674;4.616;2022-09-21T09:31:38;21.02;;;6.57;;
20772;SDS011;10546;50.674;4.616;2022-09-21T09:36:46;12.05;;;5.53;;
20772;SDS011;10546;50.674;4.616;2022-09-21T09:39:16;12.77;;;6.28;;
20772;SDS011;10546;50.674;4.616;2022-09-21T09:44:23;12.00;;;5.30;;
20772;SDS011;10546;50.674;4.616;2022-09-21T09:52:25;14.48;;;5.18;;
20772;SDS011;10546;50.674;4.616;2022-09-21T09:54:51;8.27;;;4.07;;
20772;SDS011;10546;50.674;4.616;2022-09-21T09:57:19;7.30;;;3.83;;
20772;SDS011;10546;50.674;4.616;2022-09-21T09:59:54;8.63;;;3.75;;
20772;SDS011;10546;50.674;4.616;2022-09-21T10:02:24;8.63;;;4.32;;
20772;SDS011;10546;50.674;4.616;2022-09-21T10:04:58;13.73;;;4.30;;
20772;SDS011;10546;50.674;4.616;2022-09-21T10:07:33;8.52;;;3.75;;
20772;SDS011;10546;50.674;4.616;2022-09-21T10:09:59;12.18;;;4.43;;
20772;SDS011;10546;50.674;4.616;2022-09-21T10:12:25;7.28;;;4.75;;
20772;SDS011;10546;50.674;4.616;2022-09-21T10:14:52;9.45;;;4.50;;
20772;SDS011;10546;50.674;4.616;2022-09-21T10:17:20;10.45;;;3.85;;
20772;SDS011;10546;50.674;4.616;2022-09-21T10:19:48;8.52;;;5.25;;
20772;SDS011;10546;50.674;4.616;2022-09-21T10:22:29;8.90;;;3.92;;
20772;SDS011;10546;50.674;4.616;2022-09-21T10:24:55;9.07;;;3.72;;
20772;SDS011;10546;50.674;4.616;2022-09-21T10:27:26;6.63;;;3.10;;
20772;SDS011;10546;50.674;4.616;2022-09-21T10:29:53;10.73;;;3.30;;
20772;SDS011;10546;50.674;4.616;2022-09-21T10:32:26;12.20;;;3.60;;
20772;SDS011;10546;50.674;4.616;2022-09-21T10:35:00;13.75;;;3.35;;
20772;SDS011;10546;50.674;4.616;2022-09-21T10:37:33;8.90;;;3.38;;
20772;SDS011;10546;50.674;4.616;2022-09-21T10:40:08;6.35;;;2.40;;
20772;SDS011;10546;50.674;4.616;2022-09-21T10:42:48;8.57;;;2.50;;
20772;SDS011;10546;50.674;4.616;2022-09-21T10:45:19;6.90;;;2.13;;
20772;SDS011;10546;50.674;4.616;2022-09-21T10:47:48;10.88;;;2.10;;
20772;SDS011;10546;50.674;4.616;2022-09-21T10:50:25;7.93;;;2.00;;
20772;SDS011;10546;50.674;4.616;2022-09-21T10:53:00;3.03;;;1.60;;
20772;SDS011;10546;50.674;4.616;2022-09-21T10:55:40;7.63;;;2.08;;
20772;SDS011;10546;50.674;4.616;2022-09-21T10:58:09;5.80;;;1.98;;
20772;SDS011;10546;50.674;4.616;2022-09-21T11:00:40;6.00;;;2.10;;
20772;SDS011;10546;50.674;4.616;2022-09-21T11:06:20;7.60;;;1.77;;
20772;SDS011;10546;50.674;4.616;2022-09-21T11:11:36;6.10;;;1.73;;
20772;SDS011;10546;50.674;4.616;2022-09-21T11:14:33;6.47;;;1.85;;
20772;SDS011;10546;50.674;4.616;2022-09-21T11:20:02;7.05;;;1.65;;
20772;SDS011;10546;50.674;4.616;2022-09-21T11:25:30;5.90;;;2.03;;
20772;SDS011;10546;50.674;4.616;2022-09-21T11:28:08;6.60;;;2.47;;
20772;SDS011;10546;50.674;4.616;2022-09-21T11:39:17;7.63;;;1.63;;
20772;SDS011;10546;50.674;4.616;2022-09-21T11:42:01;8.55;;;1.85;;
20772;SDS011;10546;50.674;4.616;2022-09-21T11:44:51;6.57;;;1.98;;
20772;SDS011;10546;50.674;4.616;2022-09-21T11:50:08;7.82;;;1.50;;
20772;SDS011;10546;50.674;4.616;2022-09-21T11:55:20;7.28;;;1.38;;
20772;SDS011;10546;50.674;4.616;2022-09-21T12:09:51;4.57;;;1.42;;
20772;SDS011;10546;50.674;4.616;2022-09-21T12:15:16;13.98;;;1.95;;
20772;SDS011;10546;50.674;4.616;2022-09-21T12:18:00;4.95;;;1.50;;
20772;SDS011;10546;50.674;4.616;2022-09-21T12:20:30;11.57;;;1.52;;
20772;SDS011;10546;50.674;4.616;2022-09-21T12:23:16;8.13;;;1.92;;
20772;SDS011;10546;50.674;4.616;2022-09-21T12:25:50;5.72;;;1.55;;
20772;SDS011;10546;50.674;4.616;2022-09-21T12:31:24;8.52;;;1.52;;
20772;SDS011;10546;50.674;4.616;2022-09-21T12:34:02;10.05;;;1.75;;
20772;SDS011;10546;50.674;4.616;2022-09-21T12:36:38;5.50;;;1.40;;
20772;SDS011;10546;50.674;4.616;2022-09-21T12:41:46;10.40;;;1.38;;
20772;SDS011;10546;50.674;4.616;2022-09-21T12:44:22;5.60;;;1.38;;
20772;SDS011;10546;50.674;4.616;2022-09-21T12:49:54;7.35;;;1.25;;
20772;SDS011;10546;50.674;4.616;2022-09-21T12:52:29;4.88;;;1.10;;
20772;SDS011;10546;50.674;4.616;2022-09-21T13:00:17;3.90;;;1.10;;
20772;SDS011;10546;50.674;4.616;2022-09-21T13:02:48;3.83;;;1.02;;
20772;SDS011;10546;50.674;4.616;2022-09-21T13:08:05;6.97;;;1.58;;
20772;SDS011;10546;50.674;4.616;2022-09-21T13:13:18;3.30;;;0.90;;
20772;SDS011;10546;50.674;4.616;2022-09-21T13:15:48;4.78;;;1.10;;
20772;SDS011;10546;50.674;4.616;2022-09-21T13:18:16;4.45;;;0.93;;
20772;SDS011;10546;50.674;4.616;2022-09-21T13:21:17;2.75;;;0.82;;
20772;SDS011;10546;50.674;4.616;2022-09-21T13:23:56;4.75;;;1.00;;
20772;SDS011;10546;50.674;4.616;2022-09-21T13:26:33;3.70;;;1.02;;
20772;SDS011;10546;50.674;4.616;2022-09-21T13:31:57;5.65;;;2.38;;
20772;SDS011;10546;50.674;4.616;2022-09-21T13:34:30;4.57;;;1.13;;
20772;SDS011;10546;50.674;4.616;2022-09-21T13:37:14;3.80;;;1.08;;
20772;SDS011;10546;50.674;4.616;2022-09-21T13:47:44;5.55;;;1.40;;
20772;SDS011;10546;50.674;4.616;2022-09-21T13:53:07;4.78;;;1.02;;
20772;SDS011;10546;50.674;4.616;2022-09-21T13:55:51;3.00;;;1.10;;
20772;SDS011;10546;50.674;4.616;2022-09-21T13:58:29;3.35;;;0.77;;
20772;SDS011;10546;50.674;4.616;2022-09-21T14:01:04;1.80;;;0.80;;
20772;SDS011;10546;50.674;4.616;2022-09-21T14:03:39;4.93;;;1.00;;
20772;SDS011;10546;50.674;4.616;2022-09-21T14:06:21;4.88;;;1.05;;
20772;SDS011;10546;50.674;4.616;2022-09-21T14:11:30;6.40;;;1.10;;
20772;SDS011;10546;50.674;4.616;2022-09-21T14:14:05;4.20;;;1.00;;
20772;SDS011;10546;50.674;4.616;2022-09-21T14:24:37;4.28;;;1.00;;
20772;SDS011;10546;50.674;4.616;2022-09-21T14:35:37;1.40;;;0.80;;
20772;SDS011;10546;50.674;4.616;2022-09-21T14:38:14;4.88;;;1.00;;
20772;SDS011;10546;50.674;4.616;2022-09-21T14:40:51;3.28;;;1.00;;
20772;SDS011;10546;50.674;4.616;2022-09-21T14:43:31;2.22;;;0.80;;
20772;SDS011;10546;50.674;4.616;2022-09-21T15:02:39;4.57;;;1.20;;
20772;SDS011;10546;50.674;4.616;2022-09-21T15:11:14;3.92;;;1.10;;
20772;SDS011;10546;50.674;4.616;2022-09-21T15:13:50;4.55;;;1.20;;
20772;SDS011;10546;50.674;4.616;2022-09-21T15:21:45;5.88;;;1.20;;
20772;SDS011;10546;50.674;4.616;2022-09-21T15:24:33;5.65;;;1.15;;
20772;SDS011;10546;50.674;4.616;2022-09-21T15:29:31;3.78;;;1.15;;
20772;SDS011;10546;50.674;4.616;2022-09-21T15:31:57;3.80;;;1.13;;
20772;SDS011;10546;50.674;4.616;2022-09-21T15:34:25;3.63;;;1.13;;
20772;SDS011;10546;50.674;4.616;2022-09-21T15:36:51;4.03;;;1.30;;
20772;SDS011;10546;50.674;4.616;2022-09-21T15:39:21;5.78;;;1.65;;
20772;SDS011;10546;50.674;4.616;2022-09-21T15:42:34;3.58;;;1.10;;
20772;SDS011;10546;50.674;4.616;2022-09-21T15:44:44;4.03;;;1.20;;
20772;SDS011;10546;50.674;4.616;2022-09-21T15:47:12;3.40;;;1.20;;
20772;SDS011;10546;50.674;4.616;2022-09-21T15:49:40;1.45;;;0.82;;
20772;SDS011;10546;50.674;4.616;2022-09-21T15:52:41;3.33;;;0.90;;
20772;SDS011;10546;50.674;4.616;2022-09-21T15:55:25;7.35;;;1.35;;
20772;SDS011;10546;50.674;4.616;2022-09-21T15:57:53;5.90;;;1.20;;
20772;SDS011;10546;50.674;4.616;2022-09-21T16:00:30;2.75;;;1.20;;
20772;SDS011;10546;50.674;4.616;2022-09-21T16:03:15;2.53;;;0.90;;
20772;SDS011;10546;50.674;4.616;2022-09-21T16:05:45;3.00;;;1.10;;
20772;SDS011;10546;50.674;4.616;2022-09-21T16:08:35;7.10;;;1.10;;
20772;SDS011;10546;50.674;4.616;2022-09-21T16:13:56;3.08;;;1.20;;
20772;SDS011;10546;50.674;4.616;2022-09-21T16:17:22;4.95;;;0.90;;
20772;SDS011;10546;50.674;4.616;2022-09-21T16:22:21;5.25;;;1.63;;
20772;SDS011;10546;50.674;4.616;2022-09-21T16:24:48;4.50;;;1.10;;
20772;SDS011;10546;50.674;4.616;2022-09-21T16:27:17;4.95;;;1.10;;
20772;SDS011;10546;50.674;4.616;2022-09-21T16:29:44;4.53;;;1.20;;
20772;SDS011;10546;50.674;4.616;2022-09-21T16:34:45;3.22;;;1.10;;
20772;SDS011;10546;50.674;4.616;2022-09-21T16:42:15;5.13;;;1.27;;
20772;SDS011;10546;50.674;4.616;2022-09-21T16:44:41;3.47;;;1.38;;
20772;SDS011;10546;50.674;4.616;2022-09-21T16:49:40;5.85;;;1.10;;
20772;SDS011;10546;50.674;4.616;2022-09-21T16:52:06;3.70;;;1.30;;
20772;SDS011;10546;50.674;4.616;2022-09-21T16:54:33;2.10;;;1.15;;
20772;SDS011;10546;50.674;4.616;2022-09-21T16:57:02;2.42;;;1.15;;
20772;SDS011;10546;50.674;4.616;2022-09-21T16:59:30;5.60;;;1.90;;
20772;SDS011;10546;50.674;4.616;2022-09-21T17:01:57;5.15;;;1.50;;
20772;SDS011;10546;50.674;4.616;2022-09-21T17:04:25;4.90;;;1.77;;
20772;SDS011;10546;50.674;4.616;2022-09-21T17:06:53;3.05;;;1.40;;
20772;SDS011;10546;50.674;4.616;2022-09-21T17:09:26;6.05;;;1.30;;
20772;SDS011;10546;50.674;4.616;2022-09-21T17:11:56;4.63;;;1.17;;
20772;SDS011;10546;50.674;4.616;2022-09-21T17:14:26;4.20;;;1.45;;
20772;SDS011;10546;50.674;4.616;2022-09-21T17:17:21;4.38;;;1.27;;
20772;SDS011;10546;50.674;4.616;2022-09-21T17:19:48;3.53;;;1.40;;
20772;SDS011;10546;50.674;4.616;2022-09-21T17:22:16;9.02;;;1.40;;
20772;SDS011;10546;50.674;4.616;2022-09-21T17:24:45;7.43;;;1.58;;
20772;SDS011;10546;50.674;4.616;2022-09-21T17:27:15;3.70;;;1.45;;
20772;SDS011;10546;50.674;4.616;2022-09-21T17:29:42;4.70;;;1.33;;
20772;SDS011;10546;50.674;4.616;2022-09-21T17:32:12;4.10;;;1.60;;
20772;SDS011;10546;50.674;4.616;2022-09-21T17:34:44;4.88;;;1.52;;
20772;SDS011;10546;50.674;4.616;2022-09-21T17:37:10;4.90;;;1.85;;
20772;SDS011;10546;50.674;4.616;2022-09-21T17:39:36;8.95;;;2.10;;
20772;SDS011;10546;50.674;4.616;2022-09-21T17:42:18;4.85;;;2.08;;
20772;SDS011;10546;50.674;4.616;2022-09-21T17:47:36;11.18;;;2.50;;
20772;SDS011;10546;50.674;4.616;2022-09-21T17:52:37;7.65;;;3.45;;
20772;SDS011;10546;50.674;4.616;2022-09-21T17:55:25;6.32;;;2.80;;
20772;SDS011;10546;50.674;4.616;2022-09-21T17:58:01;5.38;;;2.45;;
20772;SDS011;10546;50.674;4.616;2022-09-21T18:01:04;5.10;;;2.35;;
20772;SDS011;10546;50.674;4.616;2022-09-21T18:03:33;4.15;;;2.70;;
20772;SDS011;10546;50.674;4.616;2022-09-21T18:06:04;6.72;;;2.08;;
20772;SDS011;10546;50.674;4.616;2022-09-21T18:08:32;9.73;;;3.80;;
20772;SDS011;10546;50.674;4.616;2022-09-21T18:26:02;5.65;;;2.83;;
20772;SDS011;10546;50.674;4.616;2022-09-21T18:28:36;6.60;;;2.60;;
20772;SDS011;10546;50.674;4.616;2022-09-21T18:36:56;5.78;;;2.88;;
20772;SDS011;10546;50.674;4.616;2022-09-21T18:50:24;10.63;;;6.10;;
20772;SDS011;10546;50.674;4.616;2022-09-21T18:55:39;12.85;;;4.93;;
20772;SDS011;10546;50.674;4.616;2022-09-21T18:58:05;12.93;;;4.30;;
20772;SDS011;10546;50.674;4.616;2022-09-21T19:00:31;15.63;;;5.87;;
20772;SDS011;10546;50.674;4.616;2022-09-21T19:03:02;15.97;;;7.30;;
20772;SDS011;10546;50.674;4.616;2022-09-21T19:05:30;11.10;;;5.80;;
20772;SDS011;10546;50.674;4.616;2022-09-21T19:10:37;10.50;;;5.07;;
20772;SDS011;10546;50.674;4.616;2022-09-21T19:16:44;21.70;;;10.43;;
20772;SDS011;10546;50.674;4.616;2022-09-21T19:22:49;6.03;;;4.13;;
20772;SDS011;10546;50.674;4.616;2022-09-21T19:27:45;8.53;;;5.27;;
20772;SDS011;10546;50.674;4.616;2022-09-21T19:30:16;13.67;;;5.63;;
20772;SDS011;10546;50.674;4.616;2022-09-21T19:32:52;11.40;;;6.53;;
20772;SDS011;10546;50.674;4.616;2022-09-21T19:35:24;13.52;;;5.93;;
20772;SDS011;10546;50.674;4.616;2022-09-21T19:37:52;11.53;;;5.70;;
20772;SDS011;10546;50.674;4.616;2022-09-21T19:40:20;9.57;;;4.63;;
20772;SDS011;10546;50.674;4.616;2022-09-21T19:46:02;15.37;;;5.93;;
20772;SDS011;10546;50.674;4.616;2022-09-21T19:49:16;10.90;;;6.05;;
20772;SDS011;10546;50.674;4.616;2022-09-21T19:51:47;10.77;;;6.10;;
20772;SDS011;10546;50.674;4.616;2022-09-21T19:54:16;11.70;;;6.47;;
20772;SDS011;10546;50.674;4.616;2022-09-21T19:57:14;14.73;;;6.23;;
20772;SDS011;10546;50.674;4.616;2022-09-21T20:00:01;11.43;;;4.93;;
20772;SDS011;10546;50.674;4.616;2022-09-21T20:02:29;12.57;;;6.00;;
20772;SDS011;10546;50.674;4.616;2022-09-21T20:05:18;14.63;;;6.07;;
20772;SDS011;10546;50.674;4.616;2022-09-21T20:08:01;15.20;;;6.83;;
20772;SDS011;10546;50.674;4.616;2022-09-21T20:10:37;21.83;;;12.30;;
20772;SDS011;10546;50.674;4.616;2022-09-21T20:16:49;43.77;;;21.80;;
20772;SDS011;10546;50.674;4.616;2022-09-21T20:22:30;29.87;;;16.20;;
20772;SDS011;10546;50.674;4.616;2022-09-21T20:24:55;24.57;;;12.20;;
20772;SDS011;10546;50.674;4.616;2022-09-21T20:27:31;18.37;;;9.93;;
20772;SDS011;10546;50.674;4.616;2022-09-21T20:30:03;13.63;;;7.17;;
20772;SDS011;10546;50.674;4.616;2022-09-21T20:32:31;14.27;;;6.20;;
20772;SDS011;10546;50.674;4.616;2022-09-21T20:34:59;10.50;;;6.67;;
20772;SDS011;10546;50.674;4.616;2022-09-21T20:37:25;17.13;;;6.40;;
20772;SDS011;10546;50.674;4.616;2022-09-21T20:39:51;10.50;;;5.23;;
20772;SDS011;10546;50.674;4.616;2022-09-21T20:42:21;9.03;;;5.60;;
20772;SDS011;10546;50.674;4.616;2022-09-21T20:44:52;12.10;;;5.37;;
20772;SDS011;10546;50.674;4.616;2022-09-21T20:47:18;12.40;;;5.67;;
20772;SDS011;10546;50.674;4.616;2022-09-21T20:49:45;9.67;;;5.57;;
20772;SDS011;10546;50.674;4.616;2022-09-21T20:52:12;15.75;;;6.38;;
20772;SDS011;10546;50.674;4.616;2022-09-21T20:54:39;17.43;;;10.37;;
20772;SDS011;10546;50.674;4.616;2022-09-21T20:57:05;18.20;;;11.87;;
20772;SDS011;10546;50.674;4.616;2022-09-21T20:59:31;30.30;;;17.63;;
20772;SDS011;10546;50.674;4.616;2022-09-21T21:01:56;31.43;;;18.03;;
20772;SDS011;10546;50.674;4.616;2022-09-21T21:04:22;36.30;;;18.10;;
20772;SDS011;10546;50.674;4.616;2022-09-21T21:06:49;32.87;;;19.37;;
20772;SDS011;10546;50.674;4.616;2022-09-21T21:09:14;31.03;;;18.30;;
20772;SDS011;10546;50.674;4.616;2022-09-21T21:11:40;26.50;;;15.50;;
20772;SDS011;10546;50.674;4.616;2022-09-21T21:14:06;20.33;;;11.37;;
20772;SDS011;10546;50.674;4.616;2022-09-21T21:16:32;21.40;;;10.23;;
20772;SDS011;10546;50.674;4.616;2022-09-21T21:18:58;21.47;;;12.83;;
20772;SDS011;10546;50.674;4.616;2022-09-21T21:21:24;26.80;;;14.77;;
20772;SDS011;10546;50.674;4.616;2022-09-21T21:23:50;26.37;;;14.53;;
20772;SDS011;10546;50.674;4.616;2022-09-21T21:26:35;32.13;;;15.77;;
20772;SDS011;10546;50.674;4.616;2022-09-21T21:29:02;27.13;;;14.13;;
20772;SDS011;10546;50.674;4.616;2022-09-21T21:31:28;23.67;;;11.03;;
20772;SDS011;10546;50.674;4.616;2022-09-21T21:33:54;21.03;;;11.20;;
